Time;durP1;ratioP1;P1;durP2;ratioP2;P2;SDS_P1;SDS_P2;PMS_P1;PMS_P2;Temp;Humidity;BMP_temperature;BMP_pressure;BME280_temperature;BME280_humidity;BME280_pressure;Samples;Min_cycle;Max_cycle;Signal;HPM_P1;HPM_P2
2022/03/21 00:01:56;;;;;;;56.08;40.00;;;;;;;0.32;80.60;102859.28;5017181;28;20029;-58
2022/03/21 00:04:22;;;;;;;57.15;39.78;;;;;;;0.30;80.02;102863.03;5035209;28;20036;-57
2022/03/21 00:06:48;;;;;;;61.35;41.65;;;;;;;0.24;80.76;102857.50;5036219;28;20028;-57
2022/03/21 00:09:14;;;;;;;57.45;39.83;;;;;;;0.28;80.84;102866.97;5017677;28;20034;-57
2022/03/21 00:11:39;;;;;;;57.53;39.30;;;;;;;0.28;80.77;102864.25;5017104;28;20076;-57
2022/03/21 00:14:05;;;;;;;56.65;39.72;;;;;;;0.26;80.71;102858.97;5034502;28;20032;-57
2022/03/21 00:16:30;;;;;;;56.95;40.33;;;;;;;0.25;80.21;102861.91;5035758;28;20028;-57
2022/03/21 00:18:56;;;;;;;57.67;39.15;;;;;;;0.25;80.42;102870.06;5035127;28;20366;-57
2022/03/21 00:21:21;;;;;;;56.15;39.25;;;;;;;0.23;80.61;102867.53;5035288;28;20033;-58
2022/03/21 00:23:47;;;;;;;58.03;38.80;;;;;;;0.16;80.55;102866.56;5035501;28;20052;-57
2022/03/21 00:26:12;;;;;;;60.25;39.00;;;;;;;0.22;80.47;102881.31;5017634;28;20029;-58
2022/03/21 00:28:38;;;;;;;58.33;38.72;;;;;;;0.21;80.71;102871.47;5034340;28;20029;-58
2022/03/21 00:31:04;;;;;;;56.90;38.70;;;;;;;0.15;80.43;102876.63;5034519;28;20033;-56
2022/03/21 00:33:30;;;;;;;56.70;39.55;;;;;;;0.12;80.62;102876.16;5034532;28;20029;-57
2022/03/21 00:35:58;;;;;;;55.00;38.75;;;;;;;0.01;80.64;102874.72;5035326;28;20033;-57
2022/03/21 00:38:24;;;;;;;54.72;38.13;;;;;;;0.07;81.01;102870.41;5017397;28;20033;-58
2022/03/21 00:40:50;;;;;;;59.33;39.65;;;;;;;0.05;80.73;102881.50;5034846;28;20037;-57
2022/03/21 00:43:18;;;;;;;56.53;39.25;;;;;;;0.05;81.20;102891.56;5033828;28;20036;-57
2022/03/21 00:45:45;;;;;;;55.55;38.88;;;;;;;0.04;81.26;102892.56;5033184;28;20037;-57
2022/03/21 00:48:10;;;;;;;59.05;39.63;;;;;;;0.01;81.53;102888.31;5033251;28;20075;-57
2022/03/21 00:50:35;;;;;;;57.92;39.17;;;;;;;-0.05;81.46;102886.34;5033796;28;20124;-57
2022/03/21 00:53:01;;;;;;;55.80;38.90;;;;;;;-0.09;82.04;102885.88;5033770;28;20039;-58
2022/03/21 00:55:28;;;;;;;55.85;38.40;;;;;;;-0.14;82.30;102890.19;5033769;28;20017;-56
2022/03/21 00:57:55;;;;;;;56.22;38.92;;;;;;;-0.17;82.37;102889.50;5034562;28;20588;-56
2022/03/21 01:00:26;;;;;;;58.95;40.38;;;;;;;-0.33;82.46;102876.88;5034756;28;20061;-56
2022/03/21 01:02:53;;;;;;;56.38;39.88;;;;;;;-0.22;82.73;102894.66;5033974;28;20050;-56
2022/03/21 01:05:19;;;;;;;57.38;40.33;;;;;;;-0.26;82.23;102890.59;5016054;28;20069;-56
2022/03/21 01:07:46;;;;;;;57.10;38.35;;;;;;;-0.24;82.17;102904.06;5034652;28;20065;-57
2022/03/21 01:10:14;;;;;;;57.53;40.33;;;;;;;-0.26;82.66;102901.50;5034577;28;20068;-56
2022/03/21 01:12:40;;;;;;;54.83;38.17;;;;;;;-0.32;82.61;102897.63;5033538;28;20124;-56
2022/03/21 01:15:07;;;;;;;54.50;38.50;;;;;;;-0.31;82.98;102912.09;5034414;28;20033;-55
2022/03/21 01:17:33;;;;;;;60.78;40.08;;;;;;;-0.33;83.10;102911.41;5034123;28;20068;-57
2022/03/21 01:19:58;;;;;;;58.60;39.88;;;;;;;-0.34;82.93;102913.31;5034277;28;20060;-57
2022/03/21 01:22:24;;;;;;;59.78;39.42;;;;;;;-0.37;82.68;102910.06;5034179;28;20064;-56
2022/03/21 01:24:49;;;;;;;59.92;40.30;;;;;;;-0.36;83.03;102909.06;5034115;28;20033;-57
2022/03/21 01:27:15;;;;;;;58.75;39.45;;;;;;;-0.39;82.97;102917.59;5016445;28;20079;-56
2022/03/21 01:29:40;;;;;;;55.60;38.80;;;;;;;-0.44;82.91;102912.69;5033377;28;20669;-56
2022/03/21 01:32:05;;;;;;;58.75;39.05;;;;;;;-0.49;83.08;102913.25;5033288;28;20025;-57
2022/03/21 01:34:31;;;;;;;55.92;38.83;;;;;;;-0.51;83.25;102918.00;5016587;28;20041;-57
2022/03/21 01:36:56;;;;;;;56.75;40.67;;;;;;;-0.53;83.63;102908.34;5034053;28;20029;-57
2022/03/21 01:39:22;;;;;;;58.75;40.30;;;;;;;-0.56;83.76;102914.13;5033765;28;20033;-57
2022/03/21 01:41:47;;;;;;;59.60;39.30;;;;;;;-0.59;83.79;102909.91;5034043;28;20075;-56
2022/03/21 01:44:14;;;;;;;59.67;40.10;;;;;;;-0.63;83.97;102916.72;5033516;28;20044;-57
2022/03/21 01:46:40;;;;;;;58.08;39.45;;;;;;;-0.65;83.73;102916.03;5015267;28;20029;-57
2022/03/21 01:49:09;;;;;;;59.47;41.45;;;;;;;-0.68;84.13;102919.97;5032925;28;20025;-57
2022/03/21 01:51:38;;;;;;;58.25;39.67;;;;;;;-0.70;83.90;102913.03;5033696;28;20029;-56
2022/03/21 01:56:48;;;;;;;59.70;40.13;;;;;;;-0.78;84.31;102916.63;5033599;28;20043;-56
2022/03/21 01:59:15;;;;;;;62.30;41.13;;;;;;;-0.84;84.52;102912.75;5032592;28;20033;-57
2022/03/21 02:01:42;;;;;;;60.15;40.63;;;;;;;-1.00;85.07;102897.41;5032409;28;20032;-56
2022/03/21 02:04:08;;;;;;;58.38;40.83;;;;;;;-0.98;84.78;102911.66;5032996;28;20026;-56
2022/03/21 02:06:34;;;;;;;57.97;40.17;;;;;;;-1.05;85.00;102910.69;5015384;28;20021;-56
2022/03/21 02:09:01;;;;;;;57.92;39.70;;;;;;;-1.22;85.68;102895.47;5033237;28;20386;-56
2022/03/21 02:11:29;;;;;;;58.20;40.30;;;;;;;-1.14;85.65;102920.75;5033890;28;20060;-56
2022/03/21 02:13:58;;;;;;;62.67;40.28;;;;;;;-1.15;85.42;102919.06;5032629;28;20053;-56
2022/03/21 02:16:26;;;;;;;61.88;41.33;;;;;;;-1.16;85.87;102909.22;5032052;28;20033;-56
2022/03/21 02:18:52;;;;;;;59.33;39.50;;;;;;;-1.20;86.21;102913.28;5032340;28;20037;-56
2022/03/21 02:21:37;;;;;;;57.17;37.97;;;;;;;-1.23;85.62;102915.50;5033373;28;20029;-56
2022/03/21 02:24:09;;;;;;;61.00;40.72;;;;;;;-1.26;85.91;102912.13;5033568;28;20546;-57
2022/03/21 02:26:36;;;;;;;58.63;37.75;;;;;;;-1.27;85.85;102918.56;5033162;28;20029;-57
2022/03/21 02:29:02;;;;;;;56.35;39.75;;;;;;;-1.26;85.71;102912.13;5014944;28;20461;-56
2022/03/21 02:31:28;;;;;;;57.20;39.28;;;;;;;-1.26;86.11;102922.16;5032218;28;20033;-57
2022/03/21 02:33:54;;;;;;;55.25;39.13;;;;;;;-1.26;85.66;102914.84;5032648;28;20026;-56
2022/03/21 02:36:20;;;;;;;57.08;38.03;;;;;;;-1.23;86.04;102920.94;5033338;28;20037;-56
2022/03/21 02:38:46;;;;;;;58.90;39.35;;;;;;;-1.27;85.59;102921.28;5032410;28;20473;-57
2022/03/21 02:41:18;;;;;;;58.38;39.03;;;;;;;-1.23;85.88;102923.66;5015011;28;20030;-57
2022/03/21 02:43:55;;;;;;;58.55;38.92;;;;;;;-1.32;85.83;102903.84;5014701;28;20568;-56
2022/03/21 02:46:21;;;;;;;57.95;41.38;;;;;;;-1.23;85.93;102919.09;5015024;28;20021;-57
2022/03/21 02:48:48;;;;;;;57.15;38.03;;;;;;;-1.26;85.72;102922.16;5032350;28;20028;-56
2022/03/21 02:51:14;;;;;;;57.67;38.28;;;;;;;-1.31;85.57;102911.81;5032546;28;20022;-57
2022/03/21 02:53:41;;;;;;;55.65;37.88;;;;;;;-1.29;85.45;102919.78;5032776;28;20519;-57
2022/03/21 02:56:07;;;;;;;60.22;39.38;;;;;;;-1.28;85.81;102916.03;5033376;28;20025;-57
2022/03/21 02:58:32;;;;;;;59.90;40.10;;;;;;;-1.30;86.09;102915.34;5032447;28;20036;-57
2022/03/21 03:01:12;;;;;;;56.33;39.17;;;;;;;-1.41;86.61;102903.84;5032328;28;20535;-57
2022/03/21 03:03:38;;;;;;;55.75;38.42;;;;;;;-1.39;85.97;102914.56;5031932;28;20095;-56
2022/03/21 03:06:03;;;;;;;57.15;39.05;;;;;;;-1.43;86.14;102907.78;5032918;28;20033;-57
2022/03/21 03:08:30;;;;;;;59.05;38.80;;;;;;;-1.45;86.36;102916.09;5032713;28;20044;-58
2022/03/21 03:10:56;;;;;;;57.20;38.25;;;;;;;-1.51;86.10;102915.94;5032189;28;20473;-57
2022/03/21 03:13:22;;;;;;;61.13;39.40;;;;;;;-1.53;86.34;102913.41;5032432;28;20049;-57
2022/03/21 03:15:47;;;;;;;56.80;38.53;;;;;;;-1.54;86.55;102916.28;5032084;28;20030;-57
2022/03/21 03:18:13;;;;;;;59.65;39.97;;;;;;;-1.57;87.34;102914.78;5031987;28;20111;-57
2022/03/21 03:20:47;;;;;;;59.22;39.10;;;;;;;-1.68;87.01;102897.00;5032397;28;20030;-58
2022/03/21 03:23:13;;;;;;;58.95;38.13;;;;;;;-1.59;87.43;102925.81;5032476;28;20033;-58
2022/03/21 03:25:39;;;;;;;56.10;37.65;;;;;;;-1.59;87.34;102914.09;5032478;28;20052;-57
2022/03/21 03:28:04;;;;;;;57.38;38.20;;;;;;;-1.62;87.22;102912.56;5033799;28;20033;-57
2022/03/21 03:30:30;;;;;;;59.67;38.70;;;;;;;-1.63;87.56;102918.19;5036491;28;20064;-57
2022/03/21 03:32:55;;;;;;;57.70;37.85;;;;;;;-1.62;87.34;102928.03;5017576;28;20167;-58
2022/03/21 03:35:21;;;;;;;56.70;38.60;;;;;;;-1.61;87.56;102927.00;5036138;28;20101;-58
2022/03/21 03:37:46;;;;;;;57.35;38.75;;;;;;;-1.58;87.72;102927.50;5036184;28;20057;-57
2022/03/21 03:40:12;;;;;;;55.70;38.30;;;;;;;-1.57;87.96;102928.34;5018442;28;20021;-58
2022/03/21 03:42:37;;;;;;;57.30;37.97;;;;;;;-1.58;87.31;102929.34;5035658;28;20060;-58
2022/03/21 03:45:03;;;;;;;59.05;38.83;;;;;;;-1.57;87.44;102933.78;5035941;28;20029;-58
2022/03/21 03:47:28;;;;;;;56.08;37.63;;;;;;;-1.59;87.55;102925.81;5036571;28;20049;-58
2022/03/21 03:49:54;;;;;;;59.70;38.67;;;;;;;-1.63;87.71;102926.31;5035575;28;20040;-58
2022/03/21 03:52:19;;;;;;;58.45;38.38;;;;;;;-1.65;87.51;102918.34;5036261;28;20048;-58
2022/03/21 03:54:45;;;;;;;61.33;40.15;;;;;;;-1.61;87.77;102924.28;5035780;28;20017;-59
2022/03/21 03:57:11;;;;;;;54.50;37.80;;;;;;;-1.64;87.33;102924.63;5035645;28;20029;-58
2022/03/21 03:59:37;;;;;;;56.88;38.55;;;;;;;-1.67;87.59;102933.09;5035576;28;20087;-58
2022/03/21 04:02:02;;;;;;;54.97;38.58;;;;;;;-1.72;87.22;102939.06;5035350;28;20085;-57
2022/03/21 04:04:28;;;;;;;59.08;37.03;;;;;;;-1.70;87.51;102944.34;5017827;28;20123;-57
2022/03/21 04:06:53;;;;;;;60.97;39.47;;;;;;;-1.73;87.39;102940.06;5035719;28;20033;-57
2022/03/21 04:09:18;;;;;;;59.08;38.15;;;;;;;-1.71;87.83;102937.22;5035421;28;20029;-56
2022/03/21 04:11:44;;;;;;;55.42;37.47;;;;;;;-1.73;87.72;102940.94;5035650;28;20034;-57
2022/03/21 04:14:09;;;;;;;57.15;37.80;;;;;;;-1.76;87.92;102929.59;5035006;28;20032;-56
2022/03/21 04:16:36;;;;;;;57.55;37.17;;;;;;;-1.76;87.58;102937.72;5034505;28;20041;-57
2022/03/21 04:19:02;;;;;;;58.50;38.72;;;;;;;-1.78;88.12;102937.88;5035111;28;20026;-57
2022/03/21 04:21:27;;;;;;;57.40;37.97;;;;;;;-1.76;88.08;102943.16;5035866;28;20105;-57
2022/03/21 04:23:53;;;;;;;58.47;37.53;;;;;;;-1.78;87.87;102937.88;5035441;28;20358;-57
2022/03/21 04:26:19;;;;;;;58.85;39.08;;;;;;;-1.81;88.21;102935.53;5035228;28;20104;-57
2022/03/21 04:28:44;;;;;;;56.53;37.95;;;;;;;-1.83;87.83;102934.84;5035053;28;20022;-57
2022/03/21 04:31:09;;;;;;;57.95;38.35;;;;;;;-1.83;87.67;102939.41;5034594;28;20032;-57
2022/03/21 04:33:35;;;;;;;57.13;38.03;;;;;;;-1.85;88.02;102931.44;5034824;28;20033;-57
2022/03/21 04:36:00;;;;;;;59.00;38.35;;;;;;;-1.87;88.18;102936.19;5035412;28;20087;-57
2022/03/21 04:38:25;;;;;;;60.17;38.17;;;;;;;-1.86;88.36;102935.19;5017285;28;20052;-57
2022/03/21 04:40:51;;;;;;;57.85;38.58;;;;;;;-1.82;88.26;102941.09;5034311;28;20029;-57
2022/03/21 04:43:18;;;;;;;57.15;39.00;;;;;;;-1.81;89.59;102938.25;5034432;28;20039;-57
2022/03/21 04:45:45;;;;;;;61.40;39.45;;;;;;;-1.82;89.60;102935.66;5034805;28;20025;-56
2022/03/21 04:48:11;;;;;;;59.70;38.33;;;;;;;-1.84;89.36;102938.56;5035130;28;20049;-56
2022/03/21 04:50:37;;;;;;;60.72;39.47;;;;;;;-1.86;90.00;102945.19;5000751;28;20040;-56
2022/03/21 04:53:03;;;;;;;56.85;38.75;;;;;;;-1.90;89.79;102939.25;5034715;28;20056;-56
2022/03/21 04:55:28;;;;;;;57.92;37.45;;;;;;;-1.89;90.08;102954.53;5035173;28;20075;-57
2022/03/21 04:57:54;;;;;;;62.30;39.58;;;;;;;-1.92;90.45;102949.44;5017151;28;20048;-56
2022/03/21 05:00:19;;;;;;;59.38;38.88;;;;;;;-1.95;90.06;102934.34;5034592;28;20025;-56
2022/03/21 05:02:45;;;;;;;60.10;38.47;;;;;;;-1.95;90.16;102938.91;5034893;28;20028;-55
2022/03/21 05:05:10;;;;;;;56.45;38.47;;;;;;;-1.96;90.43;102948.06;5017063;28;20033;-57
2022/03/21 05:07:42;;;;;;;56.53;37.22;;;;;;;-1.96;89.77;102948.94;5034850;28;20017;-57
2022/03/21 05:10:09;;;;;;;56.40;37.17;;;;;;;-1.98;90.32;102956.38;5034741;28;20027;-57
2022/03/21 05:12:35;;;;;;;56.97;39.50;;;;;;;-1.96;90.65;102951.63;5016945;28;20054;-57
2022/03/21 05:15:01;;;;;;;62.28;38.75;;;;;;;-1.95;90.64;102956.06;5016974;28;20037;-57
2022/03/21 05:17:29;;;;;;;58.10;37.95;;;;;;;-1.97;90.73;102955.38;5034561;28;20056;-57
2022/03/21 05:19:55;;;;;;;55.25;37.88;;;;;;;-1.98;90.03;102948.25;5016847;28;20029;-57
2022/03/21 05:22:20;;;;;;;58.38;37.28;;;;;;;-1.97;90.29;102962.66;5034334;28;20087;-57
2022/03/21 05:35:55;;;;;;;61.72;37.95;;;;;;;-1.94;91.25;102967.75;5034119;28;20063;-57
2022/03/21 05:38:25;;;;;;;56.28;36.83;;;;;;;-1.92;91.87;102958.41;5034323;28;20033;-57
2022/03/21 05:40:52;;;;;;;55.63;37.33;;;;;;;-1.90;91.59;102963.69;5016438;28;20049;-57
2022/03/21 05:43:19;;;;;;;56.75;36.40;;;;;;;-1.88;92.14;102969.75;5034153;28;20446;-57
2022/03/21 05:45:44;;;;;;;58.30;37.13;;;;;;;-1.93;92.36;102961.28;5033655;28;20032;-57
2022/03/21 05:50:53;;;;;;;55.90;36.10;;;;;;;-1.89;91.99;102963.50;5034068;28;20135;-56
2022/03/21 05:53:19;;;;;;;59.92;38.15;;;;;;;-1.88;92.73;102962.50;5033894;28;20057;-57
2022/03/21 05:55:45;;;;;;;55.53;37.35;;;;;;;-1.85;92.60;102953.16;5033966;28;20024;-56
2022/03/21 05:58:12;;;;;;;55.97;36.72;;;;;;;-1.82;92.72;102957.38;5033887;28;20024;-57
2022/03/21 06:00:38;;;;;;;54.97;36.63;;;;;;;-1.80;93.26;102967.06;5033677;28;20070;-57
2022/03/21 06:03:04;;;;;;;59.38;35.70;;;;;;;-1.78;92.98;102966.88;5033239;28;20029;-57
2022/03/21 06:05:30;;;;;;;62.00;38.40;;;;;;;-1.75;92.41;102963.84;5033592;28;20357;-57
2022/03/21 06:07:55;;;;;;;59.80;38.28;;;;;;;-1.74;92.91;102966.38;5033709;28;20108;-57
2022/03/21 06:10:21;;;;;;;60.30;38.22;;;;;;;-1.73;93.44;102962.66;5033555;28;20029;-57
2022/03/21 06:12:46;;;;;;;60.47;39.20;;;;;;;-1.66;93.24;102967.38;5033666;28;20470;-57
2022/03/21 06:15:11;;;;;;;56.28;36.55;;;;;;;-1.60;93.64;102966.69;5033580;28;20060;-61
2022/03/21 06:17:38;;;;;;;56.55;36.65;;;;;;;-1.56;93.79;102973.47;5033434;28;20033;-57
2022/03/21 06:20:09;;;;;;;58.17;39.28;;;;;;;-1.61;93.18;102957.69;5033599;28;20032;-57
2022/03/21 06:22:35;;;;;;;59.58;35.67;;;;;;;-1.46;93.29;102974.13;5033499;28;20021;-56
2022/03/21 06:25:00;;;;;;;63.13;37.13;;;;;;;-1.39;93.65;102987.00;5033683;28;20044;-57
2022/03/21 06:27:26;;;;;;;61.38;37.75;;;;;;;-1.36;93.66;102979.34;5033164;28;20436;-56
2022/03/21 06:29:51;;;;;;;66.95;40.13;;;;;;;-1.29;93.73;102983.09;5033174;28;20026;-57
2022/03/21 06:32:17;;;;;;;63.92;37.85;;;;;;;-1.22;93.63;102976.97;5033239;28;20028;-57
2022/03/21 06:34:42;;;;;;;55.97;36.50;;;;;;;-1.13;93.63;102984.91;5032741;28;20053;-56
2022/03/21 06:37:08;;;;;;;57.28;36.03;;;;;;;-1.06;93.90;102993.19;5015427;28;20051;-57
2022/03/21 06:39:33;;;;;;;57.65;36.28;;;;;;;-1.00;94.52;102997.09;5033551;28;20037;-57
2022/03/21 06:41:59;;;;;;;57.30;36.00;;;;;;;-0.95;94.15;102990.09;5033160;28;20040;-57
2022/03/21 06:44:24;;;;;;;56.13;36.22;;;;;;;-0.85;94.25;102999.91;5033346;28;20096;-57
2022/03/21 06:46:49;;;;;;;59.75;38.13;;;;;;;-0.77;94.76;102997.16;5032978;28;20087;-58
2022/03/21 06:49:15;;;;;;;58.10;37.55;;;;;;;-0.72;94.54;102997.50;5033092;28;20129;-56
2022/03/21 06:51:40;;;;;;;56.75;36.13;;;;;;;-0.65;94.29;103009.34;5033125;28;20420;-56
2022/03/21 06:54:05;;;;;;;55.88;37.88;;;;;;;-0.59;94.18;103010.50;5033152;28;20112;-57
2022/03/21 06:56:30;;;;;;;57.33;35.80;;;;;;;-0.53;94.43;103015.22;5033214;28;20033;-57
2022/03/21 06:58:56;;;;;;;55.97;34.88;;;;;;;-0.47;94.30;103008.22;5015226;28;20477;-57
2022/03/21 07:01:21;;;;;;;54.13;34.47;;;;;;;-0.36;94.14;103015.13;5033265;28;20033;-56
2022/03/21 07:03:46;;;;;;;54.92;36.10;;;;;;;-0.26;94.47;103026.63;5035848;28;20366;-57
2022/03/21 07:06:12;;;;;;;50.95;33.17;;;;;;;-0.14;94.77;103027.06;5037231;28;20086;-57
2022/03/21 07:08:38;;;;;;;48.80;32.10;;;;;;;0.00;95.35;103022.72;5037571;28;20041;-57
2022/03/21 07:11:04;;;;;;;47.08;32.10;;;;;;;0.11;95.57;103022.28;5036878;28;20021;-57
2022/03/21 07:13:29;;;;;;;42.67;29.75;;;;;;;0.23;96.47;103022.72;5036559;28;20103;-57
2022/03/21 07:15:55;;;;;;;43.95;30.10;;;;;;;0.34;96.45;103023.28;5037289;28;20461;-56
2022/03/21 07:18:21;;;;;;;41.30;29.23;;;;;;;0.43;96.56;103017.59;5036776;28;20043;-56
2022/03/21 07:20:46;;;;;;;42.10;29.65;;;;;;;0.55;96.63;103025.31;5036634;28;20056;-56
2022/03/21 07:23:11;;;;;;;45.83;31.13;;;;;;;0.63;97.03;103019.78;5036995;28;20037;-55
2022/03/21 07:25:37;;;;;;;42.40;30.35;;;;;;;0.73;96.88;103027.69;5036734;28;20453;-55
2022/03/21 07:28:02;;;;;;;44.20;30.23;;;;;;;0.82;97.57;103012.94;5036607;28;20025;-56
2022/03/21 07:30:27;;;;;;;45.55;32.05;;;;;;;0.93;97.81;103020.66;5018690;28;20068;-56
2022/03/21 07:32:54;;;;;;;45.60;31.20;;;;;;;1.00;97.52;103020.75;5036361;28;20034;-56
2022/03/21 07:35:20;;;;;;;49.05;32.42;;;;;;;1.12;97.51;103023.84;5033060;28;20029;-57
2022/03/21 07:37:49;;;;;;;46.28;30.55;;;;;;;1.23;97.58;103026.09;5034455;28;20026;-56
2022/03/21 07:40:16;;;;;;;46.80;30.88;;;;;;;1.33;97.85;103025.81;5035055;28;20033;-57
2022/03/21 07:42:43;;;;;;;48.03;32.03;;;;;;;1.49;97.85;103027.47;5035105;28;20083;-57
2022/03/21 07:47:54;;;;;;;46.97;33.55;;;;;;;1.82;97.93;103026.16;5035202;28;20099;-55
2022/03/21 07:50:23;;;;;;;51.65;35.72;;;;;;;1.95;97.56;103023.59;5035064;28;20065;-56
2022/03/21 07:52:49;;;;;;;53.40;35.70;;;;;;;2.16;97.95;103028.19;5035034;28;20059;-57
2022/03/21 07:55:14;;;;;;;50.40;32.40;;;;;;;2.35;97.33;103023.09;5034986;28;20053;-56
2022/03/21 07:57:40;;;;;;;47.90;33.55;;;;;;;2.54;96.73;103015.25;5034664;28;20029;-58
2022/03/21 08:00:08;;;;;;;51.65;35.15;;;;;;;2.71;96.88;103022.13;5034718;28;20026;-56
2022/03/21 08:02:35;;;;;;;47.20;31.85;;;;;;;2.93;97.40;103025.63;5033498;28;20112;-58
2022/03/21 08:05:01;;;;;;;45.70;31.23;;;;;;;2.99;96.59;103028.63;5034462;28;20117;-57
2022/03/21 08:07:26;;;;;;;46.92;31.20;;;;;;;3.08;95.61;103020.03;5034663;28;20041;-56
2022/03/21 08:09:52;;;;;;;48.10;32.40;;;;;;;3.19;95.05;103032.31;5027955;28;20044;-56
2022/03/21 08:12:17;;;;;;;48.40;31.30;;;;;;;3.28;94.83;103031.09;5034668;28;20045;-57
2022/03/21 08:14:43;;;;;;;43.80;30.05;;;;;;;3.39;94.71;103028.81;5030757;28;20049;-58
2022/03/21 08:17:09;;;;;;;43.92;30.52;;;;;;;3.52;94.08;103028.88;5034537;28;20064;-56
2022/03/21 08:19:35;;;;;;;45.03;31.00;;;;;;;3.65;93.94;103035.44;5034127;28;20083;-55
2022/03/21 08:22:01;;;;;;;42.45;29.13;;;;;;;3.77;93.85;103035.69;5033741;28;20420;-55
2022/03/21 08:24:26;;;;;;;41.85;28.33;;;;;;;3.89;93.14;103034.88;5034011;28;20026;-56
2022/03/21 08:26:54;;;;;;;45.00;30.42;;;;;;;4.15;93.16;103036.00;5033756;28;20568;-57
2022/03/21 08:29:19;;;;;;;41.55;27.40;;;;;;;4.28;92.67;103037.03;5033583;28;20694;-56
2022/03/21 08:31:45;;;;;;;41.60;28.42;;;;;;;4.48;90.99;103031.59;5033595;28;20029;-56
2022/03/21 08:34:11;;;;;;;38.88;25.80;;;;;;;4.63;89.58;103028.63;5033206;28;20410;-56
2022/03/21 08:36:36;;;;;;;37.72;25.85;;;;;;;4.82;88.61;103035.13;5033670;28;20037;-55
2022/03/21 08:39:03;;;;;;;36.75;25.90;;;;;;;4.93;88.75;103028.13;5033693;28;20424;-57
2022/03/21 08:41:28;;;;;;;36.05;25.80;;;;;;;5.04;88.32;103023.91;5033739;28;20028;-57
2022/03/21 08:43:54;;;;;;;39.17;25.98;;;;;;;5.21;87.84;103022.38;5033648;28;20126;-56
2022/03/21 08:46:21;;;;;;;35.33;25.30;;;;;;;5.43;86.92;103030.31;5034805;28;20484;-57
2022/03/21 08:51:32;;;;;;;33.78;23.65;;;;;;;5.71;84.57;103029.13;5035247;28;20060;-57
2022/03/21 08:53:57;;;;;;;34.78;23.60;;;;;;;5.86;83.43;103024.19;5034643;28;20029;-56
2022/03/21 08:56:22;;;;;;;35.65;24.40;;;;;;;6.09;82.51;103033.81;5017019;28;20033;-56
2022/03/21 08:58:48;;;;;;;33.65;23.38;;;;;;;6.24;81.23;103025.22;5034956;28;20040;-56
2022/03/21 09:01:13;;;;;;;33.30;23.77;;;;;;;6.37;81.52;103024.28;5034627;28;20029;-56
2022/03/21 09:03:38;;;;;;;34.17;22.88;;;;;;;6.51;79.51;103025.03;5034557;28;20059;-56
2022/03/21 09:06:03;;;;;;;33.60;23.83;;;;;;;6.66;79.44;103031.00;5000531;28;20029;-57
2022/03/21 09:08:29;;;;;;;33.85;23.17;;;;;;;6.87;78.59;103032.47;5016731;28;20040;-56
2022/03/21 09:10:55;;;;;;;32.72;22.77;;;;;;;6.99;78.96;103017.97;5034497;28;20021;-57
2022/03/21 09:13:20;;;;;;;33.58;21.88;;;;;;;7.14;78.44;103023.94;5034592;28;20046;-57
2022/03/21 09:15:45;;;;;;;36.85;21.95;;;;;;;7.26;78.12;103024.03;5034538;28;20052;-57
2022/03/21 09:18:11;;;;;;;33.55;21.67;;;;;;;7.36;77.91;103026.22;5034237;28;20462;-56
2022/03/21 09:20:36;;;;;;;35.35;20.77;;;;;;;7.51;75.92;103027.75;5034555;28;20068;-57
2022/03/21 09:23:02;;;;;;;31.25;21.17;;;;;;;7.70;75.22;103015.59;5034154;28;20496;-56
2022/03/21 09:25:27;;;;;;;33.13;20.83;;;;;;;7.90;75.08;103015.34;5033741;28;20041;-56
2022/03/21 09:27:53;;;;;;;33.78;21.55;;;;;;;8.04;74.39;103021.50;5016257;28;20132;-56
2022/03/21 09:30:18;;;;;;;32.15;20.73;;;;;;;8.18;73.65;103018.50;5033912;28;20053;-56
2022/03/21 09:32:44;;;;;;;33.60;21.50;;;;;;;8.24;73.27;103007.38;5033995;28;20495;-57
2022/03/21 09:35:09;;;;;;;33.75;21.58;;;;;;;8.36;72.94;103010.16;5034090;28;20506;-56
2022/03/21 09:37:35;;;;;;;32.00;21.70;;;;;;;8.47;72.92;103010.41;5033989;28;20067;-57
2022/03/21 09:40:01;;;;;;;32.22;20.90;;;;;;;8.57;72.74;103006.03;5033855;28;20083;-56
2022/03/21 09:42:26;;;;;;;28.08;18.85;;;;;;;8.67;72.77;103008.16;5034430;28;20051;-56
2022/03/21 09:44:55;;;;;;;30.60;20.20;;;;;;;8.84;71.73;103012.94;5033774;28;20032;-57
2022/03/21 09:50:10;;;;;;;31.42;20.30;;;;;;;9.20;69.72;103000.78;5033979;28;20040;-56
2022/03/21 09:52:36;;;;;;;30.80;19.60;;;;;;;9.37;67.83;103000.00;5033949;28;20030;-55
2022/03/21 09:55:02;;;;;;;30.30;18.95;;;;;;;9.51;66.53;103004.19;5033595;28;20080;-57
2022/03/21 09:57:28;;;;;;;30.95;19.80;;;;;;;9.60;66.86;103001.03;5033671;28;20065;-56
2022/03/21 09:59:56;;;;;;;30.73;20.00;;;;;;;9.72;66.53;102987.16;5033546;28;20072;-56
2022/03/21 10:02:22;;;;;;;32.58;19.63;;;;;;;9.84;65.64;102994.28;5033485;28;20029;-57
2022/03/21 10:04:47;;;;;;;32.65;19.95;;;;;;;9.90;65.42;102988.88;5033638;28;20354;-57
2022/03/21 10:07:13;;;;;;;31.15;19.88;;;;;;;10.02;64.71;102992.38;5033202;28;20116;-57
2022/03/21 10:09:38;;;;;;;28.73;18.60;;;;;;;10.12;63.32;102994.50;5033498;28;20037;-57
2022/03/21 10:12:09;;;;;;;31.65;19.67;;;;;;;10.19;63.46;102978.56;5033358;28;20041;-57
2022/03/21 10:14:36;;;;;;;31.25;20.00;;;;;;;10.37;63.07;102987.69;5032124;28;20026;-57
2022/03/21 10:17:03;;;;;;;30.77;20.58;;;;;;;10.49;62.46;102979.34;5031418;28;20086;-57
2022/03/21 10:19:42;;;;;;;30.90;20.58;;;;;;;10.56;63.05;102983.63;5031667;28;20033;-56
2022/03/21 10:22:11;;;;;;;30.60;19.98;;;;;;;10.72;62.16;102979.16;5033893;28;20037;-57
2022/03/21 10:24:41;;;;;;;31.77;20.27;;;;;;;10.77;61.81;102970.06;5033405;28;20048;-56
2022/03/21 10:27:29;;;;;;;32.90;19.70;;;;;;;10.92;62.05;102981.34;5033298;28;20065;-56
2022/03/21 10:30:00;;;;;;;29.63;19.88;;;;;;;11.04;61.04;102981.25;5015469;28;20396;-57
2022/03/21 10:32:44;;;;;;;29.83;19.30;;;;;;;11.14;60.05;102977.75;5033401;28;20168;-57
2022/03/21 10:35:23;;;;;;;29.85;20.67;;;;;;;11.24;60.70;102972.34;5033346;28;20107;-57
2022/03/21 10:37:51;;;;;;;30.88;20.73;;;;;;;11.26;60.29;102958.22;5032418;28;20032;-57
2022/03/21 10:40:18;;;;;;;33.58;21.35;;;;;;;11.41;59.49;102976.97;5033070;28;20025;-58
2022/03/21 10:42:55;;;;;;;33.72;22.02;;;;;;;11.47;58.79;102972.31;5033138;28;20026;-57
2022/03/21 10:45:23;;;;;;;32.05;20.17;;;;;;;11.48;59.45;102976.78;5033055;28;20083;-56
2022/03/21 10:47:50;;;;;;;28.83;19.50;;;;;;;11.57;59.04;102968.84;5032961;28;20053;-56
2022/03/21 10:50:26;;;;;;;34.33;20.42;;;;;;;11.74;59.03;102964.03;5032988;28;20030;-56
2022/03/21 10:53:14;;;;;;;31.67;20.30;;;;;;;11.89;59.12;102965.25;5032915;28;20538;-57
2022/03/21 10:55:42;;;;;;;30.90;19.63;;;;;;;11.96;57.51;102966.72;5033010;28;20021;-57
2022/03/21 10:58:07;;;;;;;30.90;20.88;;;;;;;12.08;57.31;102969.34;5032982;28;20044;-57
2022/03/21 11:00:34;;;;;;;32.30;22.08;;;;;;;12.05;56.86;102969.03;5033201;28;20029;-56
2022/03/21 11:03:15;;;;;;;33.00;21.83;;;;;;;12.09;56.32;102962.69;5032868;28;20152;-56
2022/03/21 11:05:43;;;;;;;33.83;22.13;;;;;;;12.20;56.85;102962.78;5033408;28;20037;-57
2022/03/21 11:08:11;;;;;;;33.17;22.48;;;;;;;12.32;57.24;102946.78;5032827;28;20026;-56
2022/03/21 11:10:38;;;;;;;32.03;21.88;;;;;;;12.39;56.58;102952.94;5032876;28;20068;-57
2022/03/21 11:13:05;;;;;;;31.40;21.95;;;;;;;12.51;56.27;102951.91;5032551;28;20559;-56
2022/03/21 11:15:32;;;;;;;31.83;21.70;;;;;;;12.60;56.63;102945.56;5032689;28;20053;-57
2022/03/21 11:17:57;;;;;;;34.05;22.38;;;;;;;12.69;55.81;102953.41;5032803;28;20057;-57
2022/03/21 11:20:24;;;;;;;31.98;21.80;;;;;;;12.80;55.19;102947.63;5032845;28;20115;-57
2022/03/21 11:22:49;;;;;;;32.70;22.08;;;;;;;12.86;55.50;102950.44;5031776;28;20104;-56
2022/03/21 11:25:21;;;;;;;34.10;22.17;;;;;;;12.91;55.01;102945.75;5032784;28;20105;-56
2022/03/21 11:28:20;;;;;;;32.45;22.33;;;;;;;12.95;56.38;102938.53;5032072;28;20075;-58
2022/03/21 11:31:08;;;;;;;32.70;23.23;;;;;;;13.05;55.80;102946.09;5032642;28;20078;-57
2022/03/21 11:33:47;;;;;;;36.35;24.23;;;;;;;13.06;54.99;102942.19;5032533;28;20022;-56
2022/03/21 11:36:13;;;;;;;33.58;23.75;;;;;;;13.14;54.50;102937.22;5032656;28;20033;-57